メインページ
METAR-TAF:

METAR-TAF

空港 :

東京国際空港

東京 / 羽田国際空港, 日本

緯度: 35-33N, 経度: 139-47E, 海抜: 5m

現時点の気象観測

当レポートは32分前の22:30(UTC)に作成
東/北東の風 4kt
気温 22°C
湿度 57%
気圧 1013 hPa
視程10km以上
高度3000ftの雲はほとんどない
千切れ雲あり

METAR: RJTT 172230Z 06004KT 9999 FEW030 BKN/// 22/13 Q1013 NOSIG

時間: 08:02 (23:02 UTC)

予報

当レポートは5時間57分前の17:05(UTC)に作成
予報は17日の 18時(UTC)から 19日の 00時(UTC)まで有効
北東の風 9kt
視程10km以上
高度3000ftの雲はほとんどない
高度5000ftの雲は散在している
18日の 01時(UTC)から 18日の 03時(UTC)まで徐々に
の風 12kt
18日の 12時(UTC)から 18日の 15時(UTC)まで徐々に
北/北東の風 10kt

TAF: RJTT 171705Z 1718/1900 04009KT 9999 FEW030 SCT050 BECMG 1801/1803 10012KT BECMG 1812/1815 03010KT

4,000以上の空港の気象観測と天気予報(METAR報とTAF報)

利用可能な観測所は地図上に黄色い丸と赤い丸で示す。

丸の上にカーソルを重ねると観測所名を参照できる。

次にクリックすると気象観測と天気予報を参照できる。

マップの切り替え:黒色「×」印の緑ボタンをクリックして拡大、「-」印の緑ボタンをクリックして縮小、緑色の三角印をクリックして隣りの地図に切り替え


METAR-TAF: